createdAt,value
2018-04-02T04:00:38.199Z,92.38
2018-04-02T04:01:03.705Z,92.57
2018-04-02T04:01:29.199Z,92.47
2018-04-02T04:01:54.682Z,92.38
2018-04-02T04:02:20.182Z,92.76
2018-04-02T04:02:45.668Z,92.47
2018-04-02T04:03:11.183Z,92.57
2018-04-02T04:03:36.650Z,92.66
2018-04-02T04:04:02.163Z,92.66
2018-04-02T04:04:27.648Z,92.28
2018-04-02T04:04:53.122Z,92.28
2018-04-02T04:06:01.807Z,93.04
2018-04-02T04:06:27.307Z,92.94
2018-04-02T04:06:52.814Z,92.38
2018-04-02T04:07:18.317Z,92.94
2018-04-02T04:07:43.824Z,92.85
2018-04-02T04:08:09.273Z,93.23
2018-04-02T04:08:34.759Z,92.66
2018-04-02T04:09:00.221Z,93.13
2018-04-02T04:09:25.693Z,93.13
2018-04-02T04:09:51.191Z,93.13
2018-04-02T04:10:16.686Z,93.23
2018-04-02T04:10:42.145Z,93.13
2018-04-02T04:11:07.645Z,93.23
2018-04-02T04:11:33.099Z,93.32
2018-04-02T04:11:58.605Z,93.32
2018-04-02T04:12:24.075Z,93.41
2018-04-02T04:12:49.556Z,93.41
2018-04-02T04:13:15.037Z,93.13
2018-04-02T04:13:40.552Z,93.32
2018-04-02T04:14:06.017Z,92.94
2018-04-02T04:14:31.520Z,93.32
2018-04-02T04:14:57.012Z,92.94
2018-04-02T04:15:22.508Z,93.04
2018-04-02T04:15:48.022Z,93.13
2018-04-02T04:16:13.500Z,93.41
2018-04-02T04:16:38.999Z,93.51
2018-04-02T04:17:04.484Z,93.51
2018-04-02T04:17:29.979Z,93.51
2018-04-02T04:17:55.477Z,93.89
2018-04-02T04:18:20.977Z,93.61
2018-04-02T04:18:46.518Z,93.7
2018-04-02T04:19:11.994Z,93.61
2018-04-02T04:19:37.463Z,93.61
2018-04-02T04:20:02.925Z,93.61
2018-04-02T04:20:28.392Z,93.61
2018-04-02T04:20:53.885Z,93.51
2018-04-02T04:21:19.310Z,93.7
2018-04-02T04:21:44.812Z,93.7
2018-04-02T04:22:10.304Z,93.89
2018-04-02T04:22:35.811Z,93.89
2018-04-02T04:23:01.297Z,93.32
2018-04-02T04:23:26.752Z,93.32
2018-04-02T04:23:52.255Z,93.99
2018-04-02T04:24:17.729Z,94.18
2018-04-02T04:24:43.216Z,93.51
2018-04-02T04:25:08.734Z,93.8
2018-04-02T04:25:34.190Z,93.7
2018-04-02T04:25:59.672Z,93.99
2018-04-02T04:26:25.142Z,93.89
2018-04-02T04:26:50.633Z,94.08
2018-04-02T04:27:16.124Z,93.8
2018-04-02T04:27:41.635Z,93.7
2018-04-02T04:28:07.112Z,93.8
2018-04-02T04:28:32.556Z,93.51
2018-04-02T04:28:58.031Z,93.8
2018-04-02T04:29:23.511Z,93.61
2018-04-02T04:29:49.016Z,93.7
2018-04-02T04:30:14.501Z,93.23
2018-04-02T04:30:39.999Z,93.51
2018-04-02T04:31:05.526Z,93.41
2018-04-02T04:31:31.012Z,93.8
2018-04-02T04:31:56.519Z,93.41
2018-04-02T04:32:21.972Z,93.51
2018-04-02T04:32:47.461Z,93.13
2018-04-02T04:33:12.944Z,93.8
2018-04-02T04:33:38.460Z,93.41
2018-04-02T04:34:03.930Z,93.8
2018-04-02T04:34:29.393Z,93.61
2018-04-02T04:34:54.888Z,93.23
2018-04-02T04:35:20.357Z,93.8
2018-04-02T04:35:45.829Z,93.13
2018-04-02T04:36:11.331Z,93.61
2018-04-02T04:36:36.821Z,93.7
2018-04-02T04:37:02.316Z,93.61
2018-04-02T04:37:27.776Z,93.61
2018-04-02T04:37:53.280Z,93.23
2018-04-02T04:38:18.754Z,93.61
2018-04-02T04:38:44.251Z,93.51
2018-04-02T04:39:09.737Z,93.61
2018-04-02T04:39:35.193Z,93.89
2018-04-02T04:40:00.703Z,93.7
2018-04-02T04:40:26.278Z,93.61
2018-04-02T04:40:51.680Z,93.8
2018-04-02T04:41:17.145Z,93.61
2018-04-02T04:42:10.587Z,93.99
2018-04-02T04:42:36.070Z,93.7
2018-04-02T04:43:01.571Z,94.08
2018-04-02T04:43:27.056Z,93.7
2018-04-02T04:43:52.546Z,93.89
2018-04-02T04:44:18.011Z,93.89
2018-04-02T04:44:43.465Z,94.18
2018-04-02T04:45:41.981Z,93.89
2018-04-02T04:46:07.482Z,94.08
2018-04-02T04:46:32.990Z,93.7
2018-04-02T04:46:58.490Z,93.7
2018-04-02T04:47:23.975Z,93.51
2018-04-02T04:47:49.437Z,93.7
2018-04-02T04:48:14.941Z,93.8
2018-04-02T04:49:08.409Z,93.99
2018-04-02T04:49:33.904Z,93.8
2018-04-02T04:49:59.391Z,93.99
2018-04-02T04:50:24.897Z,94.08
2018-04-02T04:50:50.396Z,93.61
2018-04-02T04:51:15.881Z,93.8
2018-04-02T04:51:41.345Z,93.99
2018-04-02T04:52:06.865Z,93.89
2018-04-02T04:52:32.335Z,93.99
2018-04-02T04:52:57.825Z,93.7
2018-04-02T04:53:23.340Z,93.89
2018-04-02T04:53:48.782Z,94.37
2018-04-02T04:54:14.259Z,94.08
2018-04-02T04:54:39.712Z,93.7
2018-04-02T04:55:05.215Z,93.99
2018-04-02T04:55:30.744Z,94.56
2018-04-02T04:55:56.264Z,94.37
2018-04-02T04:56:21.751Z,94.37
2018-04-02T04:56:47.215Z,94.46
2018-04-02T04:57:12.708Z,94.46
2018-04-02T04:57:38.234Z,93.89
2018-04-02T04:58:03.752Z,93.89
2018-04-02T04:59:17.564Z,94.46
2018-04-02T04:59:43.065Z,94.37
2018-04-02T05:00:08.541Z,93.89
2018-04-02T05:00:34.028Z,94.37
2018-04-02T05:00:59.533Z,94.37
2018-04-02T05:01:25.012Z,94.37
2018-04-02T05:01:50.510Z,94.27
2018-04-02T05:02:16.001Z,94.37
2018-04-02T05:02:41.473Z,94.08
2018-04-02T05:03:06.958Z,94.37
2018-04-02T05:03:32.461Z,94.37
2018-04-02T05:03:57.949Z,94.46
2018-04-02T05:04:23.411Z,94.37
2018-04-02T05:04:48.921Z,94.37
2018-04-02T05:05:14.431Z,94.37
2018-04-02T05:05:39.876Z,93.89
2018-04-02T05:06:05.362Z,93.89
2018-04-02T05:06:30.864Z,94.56
2018-04-02T05:06:56.332Z,94.46
2018-04-02T05:07:21.795Z,94.37
2018-04-02T05:07:47.279Z,94.37
2018-04-02T05:08:12.753Z,93.89
2018-04-02T05:08:38.247Z,94.08
2018-04-02T05:09:03.733Z,93.99
2018-04-02T05:09:29.242Z,93.7
2018-04-02T05:09:54.724Z,93.89
2018-04-02T05:10:20.281Z,94.37
2018-04-02T05:10:45.732Z,94.46
2018-04-02T05:11:11.236Z,93.7
2018-04-02T05:11:36.707Z,94.18
2018-04-02T05:12:02.191Z,93.8
2018-04-02T05:12:27.666Z,93.89
2018-04-02T05:12:53.146Z,94.37
2018-04-02T05:13:18.631Z,94.46
2018-04-02T05:13:44.091Z,94.37
2018-04-02T05:14:09.564Z,94.46
2018-04-02T05:14:35.034Z,94.37
2018-04-02T05:15:00.543Z,94.46
2018-04-02T05:15:26.079Z,94.08
2018-04-02T05:15:51.580Z,94.46
2018-04-02T05:16:17.070Z,94.37
2018-04-02T05:16:42.550Z,94.37
2018-04-02T05:17:08.025Z,94.37
2018-04-02T05:17:33.578Z,94.37
2018-04-02T05:17:58.987Z,94.27
2018-04-02T05:18:24.462Z,94.27
2018-04-02T05:18:49.961Z,94.37
2018-04-02T05:19:15.452Z,94.18
2018-04-02T05:19:40.932Z,94.56
2018-04-02T05:20:06.428Z,94.27
2018-04-02T05:20:31.943Z,94.46
2018-04-02T05:20:57.408Z,94.46
2018-04-02T05:21:22.901Z,94.37
2018-04-02T05:21:48.435Z,94.37
2018-04-02T05:22:13.920Z,94.37
2018-04-02T05:22:39.433Z,94.37
2018-04-02T05:23:04.923Z,94.37
2018-04-02T05:23:30.428Z,94.46
2018-04-02T05:23:55.894Z,94.37
2018-04-02T05:24:21.421Z,94.65
2018-04-02T05:24:46.911Z,94.37
2018-04-02T05:25:12.413Z,94.74
2018-04-02T05:25:37.887Z,94.74
2018-04-02T05:26:03.353Z,94.65
2018-04-02T05:26:28.892Z,94.74
2018-04-02T05:26:54.395Z,94.18
2018-04-02T05:27:19.909Z,94.93
2018-04-02T05:27:45.419Z,94.93
2018-04-02T05:28:10.911Z,94.74
2018-04-02T05:28:36.375Z,94.65
2018-04-02T05:29:01.933Z,94.65
2018-04-02T05:29:27.418Z,94.65
2018-04-02T05:29:52.907Z,94.65
2018-04-02T05:30:18.394Z,94.18
2018-04-02T05:30:43.885Z,94.08
2018-04-02T05:31:09.386Z,94.08
2018-04-02T05:31:34.877Z,94.84
2018-04-02T05:32:38.471Z,94.18
2018-04-02T05:33:03.990Z,94.18
2018-04-02T05:33:29.471Z,94.74
2018-04-02T05:33:54.939Z,94.27
2018-04-02T05:34:20.422Z,94.08
2018-04-02T05:34:45.915Z,94.84
2018-04-02T05:35:11.372Z,94.84
2018-04-02T05:35:36.837Z,95.22
2018-04-02T05:36:02.310Z,94.93
2018-04-02T05:36:27.807Z,95.12
2018-04-02T05:36:53.291Z,95.12
2018-04-02T05:37:18.772Z,94.93
2018-04-02T05:37:44.251Z,94.74
2018-04-02T05:38:09.721Z,94.74
2018-04-02T05:38:35.212Z,94.93
2018-04-02T05:39:00.711Z,94.84
2018-04-02T05:39:26.195Z,94.84
2018-04-02T05:39:51.700Z,94.65
2018-04-02T05:40:17.204Z,95.03
2018-04-02T05:40:42.729Z,94.84
2018-04-02T05:41:08.250Z,95.5
2018-04-02T05:41:33.744Z,95.22
2018-04-02T05:41:59.282Z,95.41
2018-04-02T05:42:24.753Z,95.22
2018-04-02T05:42:50.255Z,95.6
2018-04-02T05:43:15.724Z,95.41
2018-04-02T05:43:41.225Z,95.79
2018-04-02T05:44:06.694Z,95.31
2018-04-02T05:44:32.175Z,95.69
2018-04-02T05:44:57.678Z,95.31
2018-04-02T05:45:23.152Z,95.41
2018-04-02T05:45:48.637Z,95.41
2018-04-02T05:46:14.123Z,95.12
2018-04-02T05:46:39.607Z,95.41
2018-04-02T05:47:05.087Z,95.03
2018-04-02T05:47:30.564Z,95.12
2018-04-02T05:47:56.055Z,95.03
2018-04-02T05:48:21.545Z,95.03
2018-04-02T05:48:47.045Z,95.22
2018-04-02T05:49:12.560Z,95.03
2018-04-02T05:49:38.027Z,95.6
2018-04-02T05:50:03.497Z,95.22
2018-04-02T05:50:29.000Z,95.69
2018-04-02T05:50:54.472Z,95.31
2018-04-02T05:51:19.950Z,95.79
2018-04-02T05:51:45.437Z,95.6
2018-04-02T05:52:10.935Z,95.69
2018-04-02T05:52:36.420Z,95.69
2018-04-02T05:53:01.938Z,95.12
2018-04-02T05:53:27.435Z,95.22
2018-04-02T05:53:52.954Z,95.41
2018-04-02T05:54:18.462Z,95.6
2018-04-02T05:54:43.921Z,95.12
2018-04-02T05:55:09.443Z,95.41
2018-04-02T05:55:34.933Z,95.41
2018-04-02T05:56:28.382Z,95.12
2018-04-02T05:56:53.877Z,95.22
2018-04-02T05:57:19.399Z,95.22
2018-04-02T05:57:44.874Z,95.41
2018-04-02T05:58:10.331Z,95.22
2018-04-02T05:58:35.796Z,95.03
2018-04-02T05:59:01.276Z,95.22
2018-04-02T05:59:26.734Z,95.22
2018-04-02T05:59:52.229Z,95.22
2018-04-02T06:00:17.691Z,95.22
2018-04-02T06:00:43.178Z,95.22
2018-04-02T06:01:08.619Z,95.12
2018-04-02T06:01:34.090Z,95.12
2018-04-02T06:01:59.579Z,95.31
2018-04-02T06:02:25.042Z,95.31
2018-04-02T06:02:50.535Z,95.31
2018-04-02T06:03:16.012Z,95.41
2018-04-02T06:03:41.491Z,95.6
2018-04-02T06:04:06.983Z,95.31
2018-04-02T06:04:32.462Z,95.41
2018-04-02T06:04:57.962Z,95.22
2018-04-02T06:05:23.434Z,95.12
2018-04-02T06:05:48.913Z,95.22
2018-04-02T06:06:14.411Z,95.41
2018-04-02T06:06:39.906Z,95.31
2018-04-02T06:07:05.377Z,95.5
2018-04-02T06:07:30.844Z,95.41
2018-04-02T06:07:56.363Z,95.22
2018-04-02T06:08:21.856Z,95.22
2018-04-02T06:08:47.345Z,95.31
2018-04-02T06:09:12.840Z,95.12
2018-04-02T06:09:38.308Z,95.69
2018-04-02T06:10:03.846Z,95.74
2018-04-02T06:10:29.318Z,95.6
2018-04-02T06:10:54.771Z,95.79
2018-04-02T06:11:20.287Z,95.6
2018-04-02T06:11:45.793Z,95.69
2018-04-02T06:12:11.279Z,95.69
2018-04-02T06:12:36.778Z,95.69
2018-04-02T06:13:02.262Z,95.79
2018-04-02T06:13:27.742Z,95.41
2018-04-02T06:13:53.219Z,95.98
2018-04-02T06:14:18.693Z,95.03
2018-04-02T06:14:44.200Z,95.22
2018-04-02T06:15:09.709Z,95.6
2018-04-02T06:15:35.138Z,95.31
2018-04-02T06:16:00.602Z,95.17
2018-04-02T06:16:26.156Z,95.46
2018-04-02T06:16:51.614Z,95.27
2018-04-02T06:17:17.101Z,95.27
2018-04-02T06:17:42.620Z,95.17
2018-04-02T06:18:08.087Z,95.46
2018-04-02T06:18:33.594Z,95.27
2018-04-02T06:18:59.119Z,95.27
2018-04-02T06:19:24.639Z,95.46
2018-04-02T06:19:50.125Z,94.98
2018-04-02T06:20:15.613Z,95.27
2018-04-02T06:20:41.124Z,95.27
2018-04-02T06:21:06.625Z,95.07
2018-04-02T06:21:32.127Z,95.07
2018-04-02T06:21:57.596Z,94.98
2018-04-02T06:22:23.079Z,94.79
2018-04-02T06:22:48.639Z,94.6
2018-04-02T06:23:14.120Z,94.51
2018-04-02T06:23:39.619Z,94.23
2018-04-02T06:24:05.088Z,94.7
2018-04-02T06:24:30.629Z,94.98
2018-04-02T06:24:56.111Z,95.17
2018-04-02T06:25:21.611Z,95.17
2018-04-02T06:25:47.100Z,95.17
2018-04-02T06:26:12.550Z,95.17
2018-04-02T06:26:38.034Z,94.98
2018-04-02T06:27:03.546Z,95.17
2018-04-02T06:27:29.029Z,95.17
2018-04-02T06:27:54.524Z,95.17
2018-04-02T06:28:19.999Z,94.7
2018-04-02T06:28:45.454Z,95.17
2018-04-02T06:29:10.989Z,94.89
2018-04-02T06:29:36.492Z,95.17
2018-04-02T06:30:01.990Z,95.07
2018-04-02T06:30:27.489Z,95.07
2018-04-02T06:30:52.975Z,95.07
2018-04-02T06:31:18.485Z,94.42
2018-04-02T06:31:43.971Z,94.42
2018-04-02T06:32:09.470Z,94.51
2018-04-02T06:32:34.974Z,94.32
2018-04-02T06:33:00.466Z,94.42
2018-04-02T06:33:25.959Z,94.51
2018-04-02T06:33:51.458Z,94.32
2018-04-02T06:34:16.955Z,94.42
2018-04-02T06:34:42.471Z,94.32
2018-04-02T06:35:07.952Z,94.42
2018-04-02T06:35:33.440Z,94.42
2018-04-02T06:35:58.960Z,94.32
2018-04-02T06:36:24.454Z,94.51
2018-04-02T06:36:49.939Z,94.7
2018-04-02T06:37:15.432Z,94.7
2018-04-02T06:37:40.904Z,94.98
2018-04-02T06:38:06.378Z,94.6
2018-04-02T06:38:31.902Z,94.32
2018-04-02T06:38:57.364Z,95.07
2018-04-02T06:39:22.848Z,94.79
2018-04-02T06:39:48.361Z,94.42
2018-04-02T06:40:13.865Z,94.6
2018-04-02T06:40:39.399Z,94.51
2018-04-02T06:41:04.854Z,94.42
2018-04-02T06:41:30.333Z,94.23
2018-04-02T06:41:55.827Z,94.23
2018-04-02T06:42:21.444Z,94.42
2018-04-02T06:42:46.965Z,93.94
2018-04-02T06:43:12.472Z,93.84
2018-04-02T06:43:37.983Z,94.03
2018-04-02T06:44:03.483Z,93.84
2018-04-02T06:44:28.972Z,94.03
2018-04-02T06:44:54.421Z,93.94
2018-04-02T06:45:19.929Z,94.03
2018-04-02T06:46:23.516Z,94.42
2018-04-02T06:46:49.024Z,93.94
2018-04-02T06:47:14.514Z,93.94
2018-04-02T06:47:40.050Z,94.32
2018-04-02T06:48:05.525Z,94.42
2018-04-02T06:48:30.996Z,94.13
2018-04-02T06:48:56.452Z,93.94
2018-04-02T06:49:21.957Z,94.13
2018-04-02T06:49:47.438Z,93.84
2018-04-02T06:50:12.948Z,94.03
2018-04-02T06:50:38.408Z,93.94
2018-04-02T06:51:03.922Z,93.84
2018-04-02T06:51:29.430Z,93.75
2018-04-02T06:51:54.909Z,93.84
2018-04-02T06:52:20.370Z,93.84
2018-04-02T06:52:45.885Z,93.75
2018-04-02T06:53:11.316Z,93.65
2018-04-02T06:53:36.831Z,93.65
2018-04-02T06:54:02.303Z,93.94
2018-04-02T06:55:10.986Z,93.37
2018-04-02T06:55:36.480Z,93.94
2018-04-02T06:56:01.977Z,93.37
2018-04-02T06:56:27.465Z,93.46
2018-04-02T06:56:52.975Z,93.27
2018-04-02T06:57:18.447Z,93.18
2018-04-02T06:57:43.903Z,92.99
2018-04-02T06:58:09.430Z,92.71
2018-04-02T06:58:34.884Z,93.46
2018-04-02T06:59:00.351Z,93.37
2018-04-02T06:59:25.856Z,93.65
2018-04-02T06:59:51.339Z,93.75
2018-04-02T07:00:16.814Z,93.65
2018-04-02T07:00:42.308Z,93.84
2018-04-02T07:01:07.763Z,93.08
2018-04-02T07:01:33.231Z,93.18
2018-04-02T07:01:58.735Z,93.18
2018-04-02T07:02:24.218Z,93.18
2018-04-02T07:02:49.717Z,93.08
2018-04-02T07:03:15.207Z,92.99
2018-04-02T07:03:40.683Z,93.18
2018-04-02T07:04:06.182Z,92.99
2018-04-02T07:04:31.712Z,92.99
2018-04-02T07:04:57.164Z,93.37
2018-04-02T07:05:22.661Z,92.8
2018-04-02T07:06:36.456Z,93.08
2018-04-02T07:07:02.581Z,93.18
2018-04-02T07:07:27.447Z,92.99
2018-04-02T07:07:52.930Z,93.37
2018-04-02T07:08:18.427Z,93.18
2018-04-02T07:08:43.912Z,93.65
2018-04-02T07:09:09.393Z,93.65
2018-04-02T07:09:34.866Z,93.51
2018-04-02T07:10:00.350Z,93.56
2018-04-02T07:10:25.827Z,93.23
2018-04-02T07:10:51.321Z,93.04
2018-04-02T07:11:16.794Z,92.94
2018-04-02T07:11:42.295Z,93.04
2018-04-02T07:12:07.814Z,93.23
2018-04-02T07:12:33.329Z,93.23
2018-04-02T07:12:58.812Z,93.32
2018-04-02T07:13:24.286Z,93.13
2018-04-02T07:13:49.795Z,93.04
2018-04-02T07:14:15.236Z,93.32
2018-04-02T07:14:40.751Z,93.13
2018-04-02T07:15:06.264Z,93.04
2018-04-02T07:15:31.746Z,92.66
2018-04-02T07:15:57.249Z,92.56
2018-04-02T07:16:22.740Z,92.37
2018-04-02T07:16:48.197Z,92.28
2018-04-02T07:17:41.652Z,92.09
2018-04-02T07:18:07.128Z,92.09
2018-04-02T07:18:32.631Z,92.09
2018-04-02T07:18:58.143Z,91.89
2018-04-02T07:19:23.628Z,92.28
2018-04-02T07:19:49.120Z,92.28
2018-04-02T07:20:14.623Z,91.99
2018-04-02T07:20:40.113Z,91.8
2018-04-02T07:21:05.593Z,91.8
2018-04-02T07:21:31.095Z,91.61
2018-04-02T07:21:56.589Z,91.89
2018-04-02T07:22:22.075Z,91.61
2018-04-02T07:22:47.751Z,91.71
2018-04-02T07:23:13.579Z,91.71
2018-04-02T07:23:39.271Z,91.52
2018-04-02T07:24:04.799Z,91.89
2018-04-02T07:24:30.423Z,91.61
2018-04-02T07:24:55.807Z,91.71
2018-04-02T07:25:21.313Z,91.42
2018-04-02T07:25:46.852Z,91.04
2018-04-02T07:26:12.368Z,90.95
2018-04-02T07:26:37.843Z,90.76
2018-04-02T07:27:03.347Z,90.95
2018-04-02T07:27:28.811Z,91.14
2018-04-02T07:27:54.298Z,91.14
2018-04-02T07:28:19.791Z,90.66
2018-04-02T07:28:45.269Z,90.57
2018-04-02T07:29:10.748Z,90.95
2018-04-02T07:29:36.283Z,90.09
2018-04-02T07:30:01.773Z,90.28
2018-04-02T07:30:27.269Z,90.19
2018-04-02T07:30:52.772Z,89.9
2018-04-02T07:31:18.264Z,90.28
2018-04-02T07:31:43.795Z,90.76
2018-04-02T07:32:09.304Z,90
2018-04-02T07:32:34.933Z,90.28
2018-04-02T07:33:00.400Z,90.57
2018-04-02T07:33:25.900Z,90.47
2018-04-02T07:33:51.349Z,90.57
2018-04-02T07:34:16.835Z,90.66
2018-04-02T07:34:42.308Z,91.33
2018-04-02T07:35:07.812Z,90.76
2018-04-02T07:36:06.361Z,91.14
2018-04-02T07:36:31.877Z,91.33
2018-04-02T07:36:57.379Z,90.76
2018-04-02T07:37:22.949Z,91.33
2018-04-02T07:37:48.481Z,91.33
2018-04-02T07:38:13.988Z,91.33
2018-04-02T07:38:39.543Z,91.14
2018-04-02T07:39:05.044Z,91.33
2018-04-02T07:39:30.558Z,91.24
2018-04-02T07:39:56.052Z,90.95
2018-04-02T07:40:21.557Z,91.04
2018-04-02T07:40:47.006Z,91.14
2018-04-02T07:41:12.480Z,90.66
2018-04-02T07:41:37.961Z,90.66
2018-04-02T07:42:03.416Z,90.76
2018-04-02T07:42:28.969Z,90.47
2018-04-02T07:42:54.426Z,90.71
2018-04-02T07:43:19.971Z,90.42
2018-04-02T07:44:23.655Z,90.05
2018-04-02T07:44:49.093Z,89.86
2018-04-02T07:45:14.566Z,90.14
2018-04-02T07:45:40.043Z,90.14
2018-04-02T07:46:05.534Z,90.33
2018-04-02T07:46:31.030Z,90.23
2018-04-02T07:46:56.568Z,90.14
2018-04-02T07:47:22.086Z,90.33
2018-04-02T07:47:47.556Z,89.95
2018-04-02T07:48:13.080Z,89.47
2018-04-02T07:48:38.559Z,89.19
2018-04-02T07:49:04.060Z,88.81
2018-04-02T07:49:29.605Z,89.57
2018-04-02T07:49:55.134Z,89.28
2018-04-02T07:50:20.576Z,88.43
2018-04-02T07:50:46.030Z,88.67
2018-04-02T07:51:11.559Z,89.14
2018-04-02T07:51:37.046Z,89.04
2018-04-02T07:52:02.535Z,88.67
2018-04-02T07:52:28.048Z,88.57
2018-04-02T07:52:53.494Z,88.85
2018-04-02T07:53:18.993Z,88.95
2018-04-02T07:53:44.469Z,89.33
2018-04-02T07:54:09.973Z,89.42
2018-04-02T07:54:35.506Z,89.04
2018-04-02T07:55:00.951Z,88.57
2018-04-02T07:55:26.396Z,88.85
2018-04-02T07:55:51.949Z,88.85
2018-04-02T07:56:17.427Z,88.38
2018-04-02T07:56:42.924Z,87.71
2018-04-02T07:57:08.475Z,88
2018-04-02T07:57:33.896Z,87.52
2018-04-02T07:57:59.353Z,88
2018-04-02T07:58:24.832Z,87.05
2018-04-02T07:58:50.355Z,86.76
2018-04-02T07:59:15.859Z,86.76
2018-04-02T07:59:41.357Z,87.14
2018-04-02T08:00:06.904Z,86.86
2018-04-02T08:00:32.356Z,86.76
2018-04-02T08:00:57.821Z,86.76
2018-04-02T08:01:23.383Z,86.76
2018-04-02T08:01:48.831Z,86.86
2018-04-02T08:02:14.362Z,86.47
2018-04-02T08:02:39.866Z,85.81
2018-04-02T08:03:05.313Z,85.91
2018-04-02T08:03:30.798Z,86.29
2018-04-02T08:03:56.300Z,86.86
2018-04-02T08:04:21.796Z,86.86
2018-04-02T08:04:47.233Z,87.14
2018-04-02T08:05:12.692Z,87.71
2018-04-02T08:05:38.178Z,87.71
2018-04-02T08:06:03.692Z,86.76
2018-04-02T08:06:29.174Z,86.76
2018-04-02T08:06:54.664Z,86.33
2018-04-02T08:07:20.259Z,86.33
2018-04-02T08:07:45.764Z,86.71
2018-04-02T08:08:11.233Z,86.52
2018-04-02T08:08:36.738Z,86.76
2018-04-02T08:09:02.246Z,86.24
2018-04-02T08:09:27.757Z,85.95
2018-04-02T08:09:53.284Z,85.66
2018-04-02T08:10:19.250Z,85.28
2018-04-02T08:10:44.561Z,85.95
2018-04-02T08:11:10.054Z,85.76
2018-04-02T08:11:35.531Z,86.14
2018-04-02T08:12:01.033Z,86.24
2018-04-02T08:12:26.514Z,85.76
2018-04-02T08:12:52.038Z,84.81
2018-04-02T08:13:45.510Z,84.62
2018-04-02T08:14:10.992Z,84.43
2018-04-02T08:14:36.477Z,84.72
2018-04-02T08:15:01.969Z,84.62
2018-04-02T08:15:27.452Z,84.33
2018-04-02T08:15:53.011Z,83.76
2018-04-02T08:16:18.453Z,83.76
2018-04-02T08:16:43.952Z,84.24
2018-04-02T08:17:09.448Z,83.76
2018-04-02T08:17:34.955Z,83.67
2018-04-02T08:18:00.452Z,84.24
2018-04-02T08:18:25.931Z,84.14
2018-04-02T08:18:51.418Z,84.52
2018-04-02T08:19:16.881Z,84.91
2018-04-02T08:19:42.382Z,84.72
2018-04-02T08:20:07.866Z,84.62
2018-04-02T08:20:33.347Z,84.52
2018-04-02T08:20:58.795Z,83.58
2018-04-02T08:21:24.329Z,83.86
2018-04-02T08:21:49.780Z,83.76
2018-04-02T08:22:15.266Z,84.33
2018-04-02T08:22:40.754Z,84.81
2018-04-02T08:23:49.438Z,84.33
2018-04-02T08:24:14.916Z,85
2018-04-02T08:24:40.407Z,84.38
2018-04-02T08:25:05.866Z,84.52
2018-04-02T08:25:31.324Z,84.76
2018-04-02T08:25:56.818Z,84.28
2018-04-02T08:26:22.318Z,84
2018-04-02T08:26:47.789Z,84
2018-04-02T08:27:13.273Z,84.19
2018-04-02T08:27:38.762Z,84.66
2018-04-02T08:28:04.231Z,84.47
2018-04-02T08:28:29.755Z,84.28
2018-04-02T08:28:55.284Z,83.9
2018-04-02T08:29:20.783Z,82.95
2018-04-02T08:29:46.282Z,82.28
2018-04-02T08:30:11.779Z,82.57
2018-04-02T08:30:37.307Z,82.38
2018-04-02T08:31:02.790Z,81.9
2018-04-02T08:31:28.289Z,80.86
2018-04-02T08:31:53.775Z,81.43
2018-04-02T08:32:19.236Z,82
2018-04-02T08:32:44.691Z,82
2018-04-02T08:33:10.183Z,82.76
2018-04-02T08:33:35.725Z,82.67
2018-04-02T08:34:01.179Z,82.38
2018-04-02T08:34:26.620Z,82.28
2018-04-02T08:34:52.114Z,82.38
2018-04-02T08:35:17.608Z,82.28
2018-04-02T08:35:43.057Z,82.76
2018-04-02T08:36:08.551Z,83.33
2018-04-02T08:36:34.052Z,83.9
2018-04-02T08:36:59.504Z,84
2018-04-02T08:37:25.002Z,83.71
2018-04-02T08:37:50.456Z,83.23
2018-04-02T08:38:15.952Z,82.67
2018-04-02T08:38:41.488Z,82.48
2018-04-02T08:39:06.961Z,82
2018-04-02T08:39:32.482Z,82.48
2018-04-02T08:39:57.949Z,82.38
2018-04-02T08:40:23.439Z,81.71
2018-04-02T08:40:48.982Z,82
2018-04-02T08:41:14.483Z,81.62
2018-04-02T08:41:39.975Z,82.38
2018-04-02T08:42:05.459Z,82.48
2018-04-02T08:42:30.976Z,82.57
2018-04-02T08:42:56.467Z,81.52
2018-04-02T08:43:21.951Z,81.9
2018-04-02T08:43:47.425Z,82.38
2018-04-02T08:44:12.925Z,82.28
2018-04-02T08:44:38.408Z,82.09
2018-04-02T08:45:03.909Z,82.76
2018-04-02T08:45:29.411Z,82.38
2018-04-02T08:45:54.883Z,81.62
2018-04-02T08:46:20.359Z,81.52
2018-04-02T08:46:45.848Z,81.14
2018-04-02T08:47:11.373Z,80.57
2018-04-02T08:47:36.888Z,81.05
2018-04-02T08:48:02.407Z,81.62
2018-04-02T08:48:27.894Z,81.33
2018-04-02T08:48:53.353Z,81.71
2018-04-02T08:49:18.830Z,81.81
2018-04-02T08:49:44.367Z,80.86
2018-04-02T08:50:09.885Z,80.86
2018-04-02T08:50:35.346Z,80.76
2018-04-02T08:51:00.851Z,80.66
2018-04-02T08:51:26.340Z,80.66
2018-04-02T08:51:51.825Z,80.52
2018-04-02T08:52:17.327Z,80.76
2018-04-02T08:52:42.818Z,80.52
2018-04-02T08:53:08.310Z,80.38
2018-04-02T08:53:33.794Z,80.66
2018-04-02T08:53:59.308Z,80.57
2018-04-02T08:54:24.793Z,80.47
2018-04-02T08:54:50.325Z,80.86
2018-04-02T08:55:15.841Z,80.95
2018-04-02T08:55:41.329Z,80.9
2018-04-02T08:56:06.820Z,80.66
2018-04-02T08:56:32.287Z,80.86
2018-04-02T08:56:57.762Z,81.05
2018-04-02T08:57:23.297Z,80.66
2018-04-02T08:57:48.808Z,80.61
2018-04-02T08:58:14.316Z,80.71
2018-04-02T08:58:39.759Z,80.86
2018-04-02T08:59:05.238Z,80.86
2018-04-02T08:59:30.732Z,80.66
2018-04-02T08:59:56.230Z,80.57
2018-04-02T09:00:21.711Z,80.38
2018-04-02T09:00:47.205Z,80.47
2018-04-02T09:01:12.721Z,80.57
2018-04-02T09:01:38.196Z,80.52
2018-04-02T09:02:03.709Z,80.33
2018-04-02T09:02:29.210Z,80.19
2018-04-02T09:02:54.727Z,79.85
2018-04-02T09:03:20.194Z,80.04
2018-04-02T09:03:45.730Z,80.52
2018-04-02T09:04:11.253Z,80.61
2018-04-02T09:04:36.779Z,80.71
2018-04-02T09:05:02.262Z,80.61
2018-04-02T09:05:27.779Z,80.71
2018-04-02T09:05:53.280Z,80.9
2018-04-02T09:06:18.785Z,80.61
2018-04-02T09:06:44.269Z,80.71
2018-04-02T09:07:09.786Z,80.23
2018-04-02T09:07:35.261Z,79.66
2018-04-02T09:08:00.787Z,79.85
2018-04-02T09:08:26.265Z,79.28
2018-04-02T09:08:51.763Z,79.47
2018-04-02T09:10:06.534Z,79.75
2018-04-02T09:10:32.036Z,79.66
2018-04-02T09:10:57.510Z,79.38
2018-04-02T09:11:22.996Z,78.99
2018-04-02T09:11:48.477Z,79.19
2018-04-02T09:12:13.964Z,78.71
2018-04-02T09:12:39.448Z,78.9
2018-04-02T09:13:04.933Z,79.75
2018-04-02T09:13:30.442Z,79.85
2018-04-02T09:13:55.948Z,79.75
2018-04-02T09:14:21.432Z,79.47
2018-04-02T09:14:46.918Z,79.57
2018-04-02T09:15:12.419Z,79.75
2018-04-02T09:15:37.913Z,79.66
2018-04-02T09:16:03.409Z,79.94
2018-04-02T09:16:28.906Z,80.23
2018-04-02T09:16:54.396Z,80.04
2018-04-02T09:17:19.924Z,79.85
2018-04-02T09:17:45.414Z,79.66
2018-04-02T09:18:10.907Z,79.66
2018-04-02T09:18:36.397Z,79.38
2018-04-02T09:19:01.873Z,79.28
2018-04-02T09:19:27.372Z,79.03
2018-04-02T09:19:52.853Z,79.32
2018-04-02T09:20:18.357Z,79.47
2018-04-02T09:20:43.842Z,80.08
2018-04-02T09:21:09.349Z,78.71
2018-04-02T09:21:34.868Z,78.33
2018-04-02T09:22:00.362Z,77.47
2018-04-02T09:22:25.841Z,77.51
2018-04-02T09:22:51.329Z,77.47
2018-04-02T09:23:16.831Z,77.8
2018-04-02T09:23:42.336Z,78.23
2018-04-02T09:24:07.820Z,78.17
2018-04-02T09:24:33.347Z,78.14
2018-04-02T09:24:58.781Z,77.95
2018-04-02T09:25:24.255Z,78.52
2018-04-02T09:25:49.726Z,77.66
2018-04-02T09:26:15.194Z,78.33
2018-04-02T09:26:40.667Z,77.66
2018-04-02T09:27:06.130Z,78.04
2018-04-02T09:27:31.656Z,78.04
2018-04-02T09:27:57.100Z,78.14
2018-04-02T09:28:22.564Z,78.04
2018-04-02T09:28:48.041Z,78.42
2018-04-02T09:29:13.512Z,78.04
2018-04-02T09:29:38.987Z,78.14
2018-04-02T09:30:04.474Z,77.85
2018-04-02T09:30:30.020Z,77.66
2018-04-02T09:30:55.507Z,78.14
2018-04-02T09:31:20.979Z,77.66
2018-04-02T09:31:46.445Z,77
2018-04-02T09:32:44.962Z,77.47
2018-04-02T09:33:10.458Z,77.19
2018-04-02T09:33:35.929Z,76.81
2018-04-02T09:34:01.407Z,76.9
2018-04-02T09:34:26.898Z,76.71
2018-04-02T09:34:52.379Z,76.9
2018-04-02T09:35:17.868Z,76.9
2018-04-02T09:35:43.363Z,76.23
2018-04-02T09:36:08.891Z,75.95
2018-04-02T09:36:34.417Z,76.04
2018-04-02T09:36:59.913Z,76.71
2018-04-02T09:37:25.433Z,76.18
2018-04-02T09:37:50.947Z,76.9
2018-04-02T09:38:16.468Z,76.94
2018-04-02T09:38:41.920Z,77
2018-04-02T09:39:07.406Z,76.61
2018-04-02T09:39:32.857Z,76.84
2018-04-02T09:39:58.350Z,76.75
2018-04-02T09:41:07.071Z,75.89